sensor_id;sensor_type;location;lat;lon;timestamp;pressure;altitude;pressure_sealevel;temperature;humidity
54022;BME280;39936;51.058;17.220;2023-05-09T00:00:00;102848.05;;;4.38;85.37
54022;BME280;39936;51.058;17.220;2023-05-09T00:04:00;102813.16;;;4.16;85.47
54022;BME280;39936;51.058;17.220;2023-05-09T00:07:51;102825.24;;;4.20;85.77
54022;BME280;39936;51.058;17.220;2023-05-09T00:11:38;102845.46;;;4.31;85.87
54022;BME280;39936;51.058;17.220;2023-05-09T00:19:03;102844.64;;;4.33;86.19
54022;BME280;39936;51.058;17.220;2023-05-09T00:22:41;102812.93;;;4.19;86.21
54022;BME280;39936;51.058;17.220;2023-05-09T00:26:41;102838.22;;;4.36;86.11
54022;BME280;39936;51.058;17.220;2023-05-09T00:30:28;102805.79;;;4.14;86.03
54022;BME280;39936;51.058;17.220;2023-05-09T00:34:16;102836.67;;;4.32;86.27
54022;BME280;39936;51.058;17.220;2023-05-09T00:37:53;102832.74;;;4.27;86.51
54022;BME280;39936;51.058;17.220;2023-05-09T00:41:29;102828.81;;;4.25;86.61
54022;BME280;39936;51.058;17.220;2023-05-09T00:45:05;102824.79;;;4.26;86.65
54022;BME280;39936;51.058;17.220;2023-05-09T00:48:54;102822.73;;;4.25;86.71
54022;BME280;39936;51.058;17.220;2023-05-09T00:52:11;102813.69;;;4.20;86.86
54022;BME280;39936;51.058;17.220;2023-05-09T00:55:59;102814.93;;;4.22;86.92
54022;BME280;39936;51.058;17.220;2023-05-09T00:59:29;102814.65;;;4.19;87.09
54022;BME280;39936;51.058;17.220;2023-05-09T01:02:51;102789.87;;;3.97;87.34
54022;BME280;39936;51.058;17.220;2023-05-09T01:07:24;102814.27;;;4.06;87.83
54022;BME280;39936;51.058;17.220;2023-05-09T01:11:08;102814.89;;;4.01;88.26
54022;BME280;39936;51.058;17.220;2023-05-09T01:14:39;102806.21;;;3.92;88.49
54022;BME280;39936;51.058;17.220;2023-05-09T01:23:09;102779.70;;;3.73;89.53
54022;BME280;39936;51.058;17.220;2023-05-09T01:27:02;102797.40;;;3.86;89.73
54022;BME280;39936;51.058;17.220;2023-05-09T01:30:38;102793.23;;;3.86;89.76
54022;BME280;39936;51.058;17.220;2023-05-09T01:34:28;102785.67;;;3.82;89.90
54022;BME280;39936;51.058;17.220;2023-05-09T01:37:53;102793.43;;;3.83;90.03
54022;BME280;39936;51.058;17.220;2023-05-09T01:41:46;102788.54;;;3.79;90.38
54022;BME280;39936;51.058;17.220;2023-05-09T01:45:27;102785.03;;;3.72;90.90
54022;BME280;39936;51.058;17.220;2023-05-09T01:49:07;102786.45;;;3.70;91.25
54022;BME280;39936;51.058;17.220;2023-05-09T01:52:48;102786.23;;;3.65;91.47
54022;BME280;39936;51.058;17.220;2023-05-09T01:56:27;102784.81;;;3.60;91.86
54022;BME280;39936;51.058;17.220;2023-05-09T02:00:01;102755.87;;;3.38;92.11
54022;BME280;39936;51.058;17.220;2023-05-09T02:03:51;102754.90;;;3.33;92.58
54022;BME280;39936;51.058;17.220;2023-05-09T02:07:10;102776.43;;;3.42;93.15
54022;BME280;39936;51.058;17.220;2023-05-09T02:11:19;102776.69;;;3.40;93.38
54022;BME280;39936;51.058;17.220;2023-05-09T02:15:09;102784.35;;;3.37;93.60
54022;BME280;39936;51.058;17.220;2023-05-09T02:18:29;102782.96;;;3.35;93.58
54022;BME280;39936;51.058;17.220;2023-05-09T02:22:31;102750.99;;;3.12;93.91
54022;BME280;39936;51.058;17.220;2023-05-09T02:29:54;102781.09;;;3.25;94.07
54022;BME280;39936;51.058;17.220;2023-05-09T02:33:13;102778.03;;;3.15;94.94
54022;BME280;39936;51.058;17.220;2023-05-09T02:41:04;102777.95;;;2.97;96.13
54022;BME280;39936;51.058;17.220;2023-05-09T02:48:42;102772.73;;;2.79;97.61
54022;BME280;39936;51.058;17.220;2023-05-09T02:56:12;102767.26;;;2.41;100.00
54022;BME280;39936;51.058;17.220;2023-05-09T02:59:54;102768.06;;;2.27;100.00
54022;BME280;39936;51.058;17.220;2023-05-09T03:03:12;102768.66;;;2.20;100.00
54022;BME280;39936;51.058;17.220;2023-05-09T03:06:40;102766.00;;;2.20;100.00
54022;BME280;39936;51.058;17.220;2023-05-09T03:10:10;102758.50;;;2.23;100.00
54022;BME280;39936;51.058;17.220;2023-05-09T03:17:41;102762.02;;;2.45;100.00
54022;BME280;39936;51.058;17.220;2023-05-09T03:20:57;102762.85;;;2.49;100.00
54022;BME280;39936;51.058;17.220;2023-05-09T03:24:57;102756.77;;;2.63;100.00
54022;BME280;39936;51.058;17.220;2023-05-09T03:28:27;102750.99;;;3.02;100.00
54022;BME280;39936;51.058;17.220;2023-05-09T03:31:57;102746.07;;;3.28;98.74
54022;BME280;39936;51.058;17.220;2023-05-09T03:35:15;102750.21;;;3.48;96.66
54022;BME280;39936;51.058;17.220;2023-05-09T03:39:31;102748.41;;;3.74;95.36
54022;BME280;39936;51.058;17.220;2023-05-09T03:43:10;102737.67;;;4.46;91.35
54022;BME280;39936;51.058;17.220;2023-05-09T03:46:46;102700.80;;;4.77;86.83
54022;BME280;39936;51.058;17.220;2023-05-09T03:50:35;102734.08;;;5.48;83.62
54022;BME280;39936;51.058;17.220;2023-05-09T03:54:11;102728.55;;;5.68;80.75
54022;BME280;39936;51.058;17.220;2023-05-09T03:57:50;102724.63;;;6.18;78.95
54022;BME280;39936;51.058;17.220;2023-05-09T04:01:30;102720.38;;;6.70;76.56
54022;BME280;39936;51.058;17.220;2023-05-09T04:05:30;102717.53;;;7.09;73.79
54022;BME280;39936;51.058;17.220;2023-05-09T04:09:09;102724.18;;;7.06;72.89
54022;BME280;39936;51.058;17.220;2023-05-09T04:13:17;102723.17;;;7.30;72.22
54022;BME280;39936;51.058;17.220;2023-05-09T04:16:48;102723.56;;;7.41;71.55
54022;BME280;39936;51.058;17.220;2023-05-09T04:20:30;102719.27;;;7.22;71.49
54022;BME280;39936;51.058;17.220;2023-05-09T04:24:12;102721.05;;;7.37;72.16
54022;BME280;39936;51.058;17.220;2023-05-09T04:28:02;102718.31;;;8.14;69.27
54022;BME280;39936;51.058;17.220;2023-05-09T04:31:19;102708.41;;;8.12;68.48
54022;BME280;39936;51.058;17.220;2023-05-09T04:35:42;102719.71;;;8.24;68.87
54022;BME280;39936;51.058;17.220;2023-05-09T04:39:35;102724.87;;;7.13;73.40
54022;BME280;39936;51.058;17.220;2023-05-09T04:42:51;102727.39;;;6.68;76.63
54022;BME280;39936;51.058;17.220;2023-05-09T04:47:13;102728.64;;;6.64;77.73
54022;BME280;39936;51.058;17.220;2023-05-09T04:50:32;102726.13;;;6.77;78.35
54022;BME280;39936;51.058;17.220;2023-05-09T04:53:50;102729.06;;;6.94;78.19
54022;BME280;39936;51.058;17.220;2023-05-09T04:57:52;102724.57;;;7.01;77.87
54022;BME280;39936;51.058;17.220;2023-05-09T05:01:16;102723.40;;;7.26;76.90
54022;BME280;39936;51.058;17.220;2023-05-09T05:04:31;102725.60;;;7.34;75.56
54022;BME280;39936;51.058;17.220;2023-05-09T05:08:09;102726.98;;;7.39;74.59
54022;BME280;39936;51.058;17.220;2023-05-09T05:11:38;102721.18;;;7.38;74.94
54022;BME280;39936;51.058;17.220;2023-05-09T05:15:39;102724.91;;;7.46;74.55
54022;BME280;39936;51.058;17.220;2023-05-09T05:18:54;102721.14;;;7.57;75.46
54022;BME280;39936;51.058;17.220;2023-05-09T05:22:22;102719.25;;;7.74;75.05
54022;BME280;39936;51.058;17.220;2023-05-09T05:26:24;102682.46;;;7.69;74.76
54022;BME280;39936;51.058;17.220;2023-05-09T05:34:08;102708.91;;;8.21;72.33
54022;BME280;39936;51.058;17.220;2023-05-09T05:38:36;102711.59;;;8.42;73.11
54022;BME280;39936;51.058;17.220;2023-05-09T05:42:12;102703.16;;;8.67;72.50
54022;BME280;39936;51.058;17.220;2023-05-09T05:46:22;102662.84;;;8.42;71.67
54022;BME280;39936;51.058;17.220;2023-05-09T05:50:19;102694.44;;;8.77;71.07
54022;BME280;39936;51.058;17.220;2023-05-09T05:54:08;102683.22;;;8.76;70.57
54022;BME280;39936;51.058;17.220;2023-05-09T05:58:04;102688.16;;;9.14;70.78
54022;BME280;39936;51.058;17.220;2023-05-09T06:01:35;102684.91;;;9.20;68.35
54022;BME280;39936;51.058;17.220;2023-05-09T06:09:07;102679.64;;;9.53;67.01
54022;BME280;39936;51.058;17.220;2023-05-09T06:12:38;102670.30;;;9.75;67.58
54022;BME280;39936;51.058;17.220;2023-05-09T06:16:20;102666.14;;;10.00;66.45
54022;BME280;39936;51.058;17.220;2023-05-09T06:19:40;102648.95;;;10.17;64.68
54022;BME280;39936;51.058;17.220;2023-05-09T06:22:58;102659.55;;;9.94;64.79
54022;BME280;39936;51.058;17.220;2023-05-09T06:26:19;102652.77;;;10.01;65.46
54022;BME280;39936;51.058;17.220;2023-05-09T06:29:38;102649.27;;;10.23;64.57
54022;BME280;39936;51.058;17.220;2023-05-09T06:32:56;102651.54;;;10.25;63.92
54022;BME280;39936;51.058;17.220;2023-05-09T06:36:34;102649.84;;;10.44;62.18
54022;BME280;39936;51.058;17.220;2023-05-09T06:40:15;102649.96;;;10.69;60.63
54022;BME280;39936;51.058;17.220;2023-05-09T06:43:52;102610.23;;;10.53;60.34
54022;BME280;39936;51.058;17.220;2023-05-09T06:47:57;102641.20;;;10.78;60.33
54022;BME280;39936;51.058;17.220;2023-05-09T06:51:37;102637.93;;;10.76;59.70
54022;BME280;39936;51.058;17.220;2023-05-09T06:55:00;102632.02;;;10.89;58.61
54022;BME280;39936;51.058;17.220;2023-05-09T06:58:19;102627.87;;;10.96;58.17
54022;BME280;39936;51.058;17.220;2023-05-09T07:09:00;102616.43;;;11.34;56.14
54022;BME280;39936;51.058;17.220;2023-05-09T07:12:32;102615.09;;;11.30;56.44
54022;BME280;39936;51.058;17.220;2023-05-09T07:16:11;102612.74;;;11.58;57.88
54022;BME280;39936;51.058;17.220;2023-05-09T07:19:31;102609.40;;;11.65;56.55
54022;BME280;39936;51.058;17.220;2023-05-09T07:23:11;102614.26;;;11.87;56.72
54022;BME280;39936;51.058;17.220;2023-05-09T07:26:32;102607.30;;;12.16;55.66
54022;BME280;39936;51.058;17.220;2023-05-09T07:29:52;102609.13;;;11.97;55.17
54022;BME280;39936;51.058;17.220;2023-05-09T07:33:08;102597.75;;;12.15;56.57
54022;BME280;39936;51.058;17.220;2023-05-09T07:36:26;102587.46;;;12.33;54.96
54022;BME280;39936;51.058;17.220;2023-05-09T07:39:43;102588.67;;;12.00;54.72
54022;BME280;39936;51.058;17.220;2023-05-09T07:43:29;102576.09;;;12.02;55.96
54022;BME280;39936;51.058;17.220;2023-05-09T07:47:06;102569.77;;;12.32;54.27
54022;BME280;39936;51.058;17.220;2023-05-09T07:50:26;102555.71;;;12.27;53.53
54022;BME280;39936;51.058;17.220;2023-05-09T07:54:06;102550.91;;;12.34;53.91
54022;BME280;39936;51.058;17.220;2023-05-09T07:57:48;102505.69;;;12.13;52.20
54022;BME280;39936;51.058;17.220;2023-05-09T08:01:30;102526.13;;;12.37;52.36
54022;BME280;39936;51.058;17.220;2023-05-09T08:04:52;102529.12;;;12.76;52.61
54022;BME280;39936;51.058;17.220;2023-05-09T08:08:34;102530.62;;;12.96;52.40
54022;BME280;39936;51.058;17.220;2023-05-09T08:12:47;102526.08;;;12.79;51.43
54022;BME280;39936;51.058;17.220;2023-05-09T08:16:42;102489.33;;;12.60;51.91
54022;BME280;39936;51.058;17.220;2023-05-09T08:20:08;102524.66;;;12.79;51.53
54022;BME280;39936;51.058;17.220;2023-05-09T08:24:14;102517.90;;;12.81;51.29
54022;BME280;39936;51.058;17.220;2023-05-09T08:28:21;102526.84;;;12.96;50.69
54022;BME280;39936;51.058;17.220;2023-05-09T08:32:36;102516.31;;;13.42;51.47
54022;BME280;39936;51.058;17.220;2023-05-09T08:36:15;102513.13;;;13.29;50.05
54022;BME280;39936;51.058;17.220;2023-05-09T08:39:55;102506.48;;;12.94;50.42
54022;BME280;39936;51.058;17.220;2023-05-09T08:43:16;102495.35;;;13.10;50.68
54022;BME280;39936;51.058;17.220;2023-05-09T08:50:32;102488.46;;;13.27;50.18
54022;BME280;39936;51.058;17.220;2023-05-09T08:54:24;102481.13;;;13.46;49.49
54022;BME280;39936;51.058;17.220;2023-05-09T08:58:03;102455.92;;;13.21;49.11
54022;BME280;39936;51.058;17.220;2023-05-09T09:02:26;102479.62;;;13.34;49.60
54022;BME280;39936;51.058;17.220;2023-05-09T09:06:07;102480.51;;;13.50;50.32
54022;BME280;39936;51.058;17.220;2023-05-09T09:09:32;102472.50;;;13.58;50.04
54022;BME280;39936;51.058;17.220;2023-05-09T09:13:17;102469.70;;;13.50;49.57
54022;BME280;39936;51.058;17.220;2023-05-09T09:17:25;102459.20;;;13.80;49.63
54022;BME280;39936;51.058;17.220;2023-05-09T09:21:17;102462.55;;;13.70;49.07
54022;BME280;39936;51.058;17.220;2023-05-09T09:25:08;102455.92;;;13.57;49.10
54022;BME280;39936;51.058;17.220;2023-05-09T09:28:26;102448.89;;;13.77;49.23
54022;BME280;39936;51.058;17.220;2023-05-09T09:32:49;102441.14;;;14.06;50.49
54022;BME280;39936;51.058;17.220;2023-05-09T09:44:27;102422.73;;;14.92;46.29
54022;BME280;39936;51.058;17.220;2023-05-09T09:47:47;102430.95;;;14.55;45.48
54022;BME280;39936;51.058;17.220;2023-05-09T09:52:23;102432.55;;;14.48;46.16
54022;BME280;39936;51.058;17.220;2023-05-09T09:55:50;102423.76;;;14.80;48.06
54022;BME280;39936;51.058;17.220;2023-05-09T10:00:23;102423.03;;;14.92;47.02
54022;BME280;39936;51.058;17.220;2023-05-09T10:08:02;102415.86;;;14.87;46.71
54022;BME280;39936;51.058;17.220;2023-05-09T10:11:35;102405.03;;;14.46;47.65
54022;BME280;39936;51.058;17.220;2023-05-09T10:14:55;102410.90;;;14.34;46.56
54022;BME280;39936;51.058;17.220;2023-05-09T10:18:39;102401.32;;;14.09;47.84
54022;BME280;39936;51.058;17.220;2023-05-09T10:22:20;102402.02;;;14.29;47.30
54022;BME280;39936;51.058;17.220;2023-05-09T10:26:45;102396.84;;;14.40;48.18
54022;BME280;39936;51.058;17.220;2023-05-09T10:30:47;102387.01;;;14.77;48.43
54022;BME280;39936;51.058;17.220;2023-05-09T10:34:06;102355.87;;;14.84;47.79
54022;BME280;39936;51.058;17.220;2023-05-09T10:37:40;102382.37;;;14.53;47.04
54022;BME280;39936;51.058;17.220;2023-05-09T10:41:19;102375.16;;;14.44;48.26
54022;BME280;39936;51.058;17.220;2023-05-09T10:45:00;102369.11;;;14.64;47.18
54022;BME280;39936;51.058;17.220;2023-05-09T10:48:20;102331.42;;;14.77;45.81
54022;BME280;39936;51.058;17.220;2023-05-09T10:52:32;102353.78;;;14.75;45.79
54022;BME280;39936;51.058;17.220;2023-05-09T10:56:28;102351.94;;;14.87;46.53
54022;BME280;39936;51.058;17.220;2023-05-09T11:03:56;102339.47;;;14.76;46.41
54022;BME280;39936;51.058;17.220;2023-05-09T11:07:45;102318.86;;;14.38;47.29
54022;BME280;39936;51.058;17.220;2023-05-09T11:11:07;102327.87;;;14.67;46.26
54022;BME280;39936;51.058;17.220;2023-05-09T11:14:37;102323.66;;;14.98;45.05
54022;BME280;39936;51.058;17.220;2023-05-09T11:18:09;102311.92;;;15.10;45.23
54022;BME280;39936;51.058;17.220;2023-05-09T11:22:00;102268.23;;;15.23;44.87
54022;BME280;39936;51.058;17.220;2023-05-09T11:26:07;102307.66;;;14.95;45.04
54022;BME280;39936;51.058;17.220;2023-05-09T11:29:54;102294.22;;;15.32;46.69
54022;BME280;39936;51.058;17.220;2023-05-09T11:40:39;102277.50;;;15.56;44.06
54022;BME280;39936;51.058;17.220;2023-05-09T11:44:43;102273.66;;;15.32;43.59
54022;BME280;39936;51.058;17.220;2023-05-09T11:48:37;102269.89;;;15.37;43.50
54022;BME280;39936;51.058;17.220;2023-05-09T11:52:48;102258.25;;;15.20;44.56
54022;BME280;39936;51.058;17.220;2023-05-09T12:00:22;102241.59;;;15.94;42.34
54022;BME280;39936;51.058;17.220;2023-05-09T12:04:00;102231.24;;;16.03;42.35
54022;BME280;39936;51.058;17.220;2023-05-09T12:08:05;102205.79;;;15.55;42.61
54022;BME280;39936;51.058;17.220;2023-05-09T12:11:48;102191.94;;;15.74;42.02
54022;BME280;39936;51.058;17.220;2023-05-09T12:15:21;102209.36;;;16.18;41.75
54022;BME280;39936;51.058;17.220;2023-05-09T12:19:10;102207.47;;;16.30;42.43
54022;BME280;39936;51.058;17.220;2023-05-09T12:22:42;102208.67;;;16.52;41.18
54022;BME280;39936;51.058;17.220;2023-05-09T12:26:30;102211.88;;;16.28;41.06
54022;BME280;39936;51.058;17.220;2023-05-09T12:30:21;102187.91;;;16.16;40.87
54022;BME280;39936;51.058;17.220;2023-05-09T12:34:00;102195.30;;;16.25;40.78
54022;BME280;39936;51.058;17.220;2023-05-09T12:41:30;102179.36;;;16.52;40.50
54022;BME280;39936;51.058;17.220;2023-05-09T12:44:52;102176.91;;;16.77;40.93
54022;BME280;39936;51.058;17.220;2023-05-09T12:48:14;102163.52;;;16.81;40.20
54022;BME280;39936;51.058;17.220;2023-05-09T12:51:54;102144.53;;;16.76;40.08
54022;BME280;39936;51.058;17.220;2023-05-09T12:55:49;102157.34;;;16.80;40.76
54022;BME280;39936;51.058;17.220;2023-05-09T12:59:10;102155.18;;;16.76;40.19
54022;BME280;39936;51.058;17.220;2023-05-09T13:02:55;102156.55;;;16.93;40.91
54022;BME280;39936;51.058;17.220;2023-05-09T13:06:27;102144.71;;;17.13;39.76
54022;BME280;39936;51.058;17.220;2023-05-09T13:10:10;102143.33;;;17.15;39.71
54022;BME280;39936;51.058;17.220;2023-05-09T13:13:50;102130.60;;;17.37;41.63
54022;BME280;39936;51.058;17.220;2023-05-09T13:18:14;102110.44;;;17.77;41.08
54022;BME280;39936;51.058;17.220;2023-05-09T13:21:34;102115.11;;;17.97;39.47
54022;BME280;39936;51.058;17.220;2023-05-09T13:25:25;102111.02;;;17.70;36.77
54022;BME280;39936;51.058;17.220;2023-05-09T13:29:04;102108.06;;;17.20;38.42
54022;BME280;39936;51.058;17.220;2023-05-09T13:40:16;102100.95;;;17.78;40.52
54022;BME280;39936;51.058;17.220;2023-05-09T13:48:15;102051.33;;;17.85;39.16
54022;BME280;39936;51.058;17.220;2023-05-09T13:55:41;102079.13;;;17.72;39.44
54022;BME280;39936;51.058;17.220;2023-05-09T13:59:20;102054.29;;;17.75;40.16
54022;BME280;39936;51.058;17.220;2023-05-09T14:03:35;102072.84;;;18.10;39.99
54022;BME280;39936;51.058;17.220;2023-05-09T14:07:11;102040.73;;;17.57;40.42
54022;BME280;39936;51.058;17.220;2023-05-09T14:14:28;102050.18;;;17.52;41.10
54022;BME280;39936;51.058;17.220;2023-05-09T14:18:05;102049.79;;;17.78;40.72
54022;BME280;39936;51.058;17.220;2023-05-09T14:22:15;102026.92;;;17.90;39.83
54022;BME280;39936;51.058;17.220;2023-05-09T14:25:34;102044.26;;;17.70;39.31
54022;BME280;39936;51.058;17.220;2023-05-09T14:29:25;102035.83;;;17.74;39.79
54022;BME280;39936;51.058;17.220;2023-05-09T14:32:47;102032.73;;;17.65;39.05
54022;BME280;39936;51.058;17.220;2023-05-09T14:36:14;102026.25;;;17.35;39.34
54022;BME280;39936;51.058;17.220;2023-05-09T14:40:19;102019.62;;;17.47;41.50
54022;BME280;39936;51.058;17.220;2023-05-09T14:44:14;102020.23;;;17.38;40.04
54022;BME280;39936;51.058;17.220;2023-05-09T14:48:08;102011.21;;;17.47;38.87
54022;BME280;39936;51.058;17.220;2023-05-09T14:56:16;102008.63;;;17.62;40.40
54022;BME280;39936;51.058;17.220;2023-05-09T15:03:31;102004.19;;;17.88;37.95
54022;BME280;39936;51.058;17.220;2023-05-09T15:07:30;102000.27;;;17.75;38.37
54022;BME280;39936;51.058;17.220;2023-05-09T15:11:21;102000.30;;;17.74;39.76
54022;BME280;39936;51.058;17.220;2023-05-09T15:15:45;101989.55;;;17.91;40.13
54022;BME280;39936;51.058;17.220;2023-05-09T15:19:34;101987.16;;;17.99;38.45
54022;BME280;39936;51.058;17.220;2023-05-09T15:23:13;101985.71;;;17.95;39.19
54022;BME280;39936;51.058;17.220;2023-05-09T15:27:00;101978.40;;;17.90;38.69
54022;BME280;39936;51.058;17.220;2023-05-09T15:34:44;101973.84;;;17.24;38.98
54022;BME280;39936;51.058;17.220;2023-05-09T15:38:35;101956.40;;;16.91;39.15
54022;BME280;39936;51.058;17.220;2023-05-09T15:41:54;101971.72;;;16.98;39.28
54022;BME280;39936;51.058;17.220;2023-05-09T15:45:35;101969.00;;;16.88;39.49
54022;BME280;39936;51.058;17.220;2023-05-09T15:49:18;101967.02;;;16.95;39.93
54022;BME280;39936;51.058;17.220;2023-05-09T15:52:41;101970.46;;;17.21;40.22
54022;BME280;39936;51.058;17.220;2023-05-09T15:56:19;101957.55;;;17.30;40.35
54022;BME280;39936;51.058;17.220;2023-05-09T15:59:39;101952.75;;;17.35;39.77
54022;BME280;39936;51.058;17.220;2023-05-09T16:03:14;101951.19;;;17.36;39.02
54022;BME280;39936;51.058;17.220;2023-05-09T16:07:03;101945.89;;;17.28;38.76
54022;BME280;39936;51.058;17.220;2023-05-09T16:10:50;101947.05;;;16.98;38.44
54022;BME280;39936;51.058;17.220;2023-05-09T16:14:30;101935.84;;;16.92;39.33
54022;BME280;39936;51.058;17.220;2023-05-09T16:22:31;101927.40;;;17.12;38.75
54022;BME280;39936;51.058;17.220;2023-05-09T16:26:23;101926.06;;;16.99;39.48
54022;BME280;39936;51.058;17.220;2023-05-09T16:30:13;101921.05;;;16.64;39.30
54022;BME280;39936;51.058;17.220;2023-05-09T16:34:16;101902.59;;;16.39;40.07
54022;BME280;39936;51.058;17.220;2023-05-09T16:37:31;101904.84;;;16.36;40.65
54022;BME280;39936;51.058;17.220;2023-05-09T16:41:11;101906.95;;;16.35;40.70
54022;BME280;39936;51.058;17.220;2023-05-09T16:44:36;101899.51;;;16.36;40.64
54022;BME280;39936;51.058;17.220;2023-05-09T16:48:27;101896.43;;;16.56;41.41
54022;BME280;39936;51.058;17.220;2023-05-09T16:51:47;101875.41;;;16.51;40.30
54022;BME280;39936;51.058;17.220;2023-05-09T16:56:04;101892.93;;;16.50;39.75
54022;BME280;39936;51.058;17.220;2023-05-09T16:59:20;101892.27;;;16.25;40.59
54022;BME280;39936;51.058;17.220;2023-05-09T17:03:34;101874.20;;;16.06;40.19
54022;BME280;39936;51.058;17.220;2023-05-09T17:07:10;101878.46;;;16.11;40.60
54022;BME280;39936;51.058;17.220;2023-05-09T17:11:08;101886.95;;;16.04;40.51
54022;BME280;39936;51.058;17.220;2023-05-09T17:14:41;101877.79;;;15.96;40.85
54022;BME280;39936;51.058;17.220;2023-05-09T17:18:09;101862.78;;;15.75;41.41
54022;BME280;39936;51.058;17.220;2023-05-09T17:22:06;101867.68;;;15.85;41.58
54022;BME280;39936;51.058;17.220;2023-05-09T17:25:31;101871.31;;;15.89;41.70
54022;BME280;39936;51.058;17.220;2023-05-09T17:29:03;101872.52;;;15.95;41.70
54022;BME280;39936;51.058;17.220;2023-05-09T17:36:43;101863.89;;;16.20;41.75
54022;BME280;39936;51.058;17.220;2023-05-09T17:40:06;101861.00;;;16.22;41.56
54022;BME280;39936;51.058;17.220;2023-05-09T17:43:47;101864.94;;;16.46;41.80
54022;BME280;39936;51.058;17.220;2023-05-09T17:47:35;101863.30;;;16.60;41.48
54022;BME280;39936;51.058;17.220;2023-05-09T17:51:15;101861.09;;;16.61;41.07
54022;BME280;39936;51.058;17.220;2023-05-09T17:55:02;101863.48;;;16.19;41.44
54022;BME280;39936;51.058;17.220;2023-05-09T17:58:36;101867.63;;;16.02;41.83
54022;BME280;39936;51.058;17.220;2023-05-09T18:02:18;101865.29;;;15.73;42.29
54022;BME280;39936;51.058;17.220;2023-05-09T18:05:59;101868.67;;;15.56;42.64
54022;BME280;39936;51.058;17.220;2023-05-09T18:09:44;101871.09;;;15.22;43.23
54022;BME280;39936;51.058;17.220;2023-05-09T18:13:38;101874.22;;;15.05;43.74
54022;BME280;39936;51.058;17.220;2023-05-09T18:17:39;101873.13;;;14.78;44.44
54022;BME280;39936;51.058;17.220;2023-05-09T18:21:21;101874.23;;;14.49;45.09
54022;BME280;39936;51.058;17.220;2023-05-09T18:25:04;101877.87;;;14.19;45.96
54022;BME280;39936;51.058;17.220;2023-05-09T18:28:20;101878.42;;;13.91;46.60
54022;BME280;39936;51.058;17.220;2023-05-09T18:32:23;101878.57;;;13.73;47.00
54022;BME280;39936;51.058;17.220;2023-05-09T18:36:24;101878.79;;;13.51;47.78
54022;BME280;39936;51.058;17.220;2023-05-09T18:43:32;101898.06;;;13.17;48.91
54022;BME280;39936;51.058;17.220;2023-05-09T18:51:19;101904.90;;;12.80;49.85
54022;BME280;39936;51.058;17.220;2023-05-09T18:55:09;101912.75;;;12.61;50.64
54022;BME280;39936;51.058;17.220;2023-05-09T18:58:45;101912.13;;;12.44;51.27
54022;BME280;39936;51.058;17.220;2023-05-09T19:02:23;101915.55;;;12.27;51.91
54022;BME280;39936;51.058;17.220;2023-05-09T19:06:14;101913.19;;;12.11;52.74
54022;BME280;39936;51.058;17.220;2023-05-09T19:09:36;101919.27;;;12.00;52.96
54022;BME280;39936;51.058;17.220;2023-05-09T19:12:54;101887.00;;;11.70;53.60
54022;BME280;39936;51.058;17.220;2023-05-09T19:16:10;101890.42;;;11.56;54.05
54022;BME280;39936;51.058;17.220;2023-05-09T19:19:46;101921.64;;;11.69;54.36
54022;BME280;39936;51.058;17.220;2023-05-09T19:23:19;101921.72;;;11.60;54.65
54022;BME280;39936;51.058;17.220;2023-05-09T19:27:01;101921.78;;;11.52;54.95
54022;BME280;39936;51.058;17.220;2023-05-09T19:30:36;101923.49;;;11.38;55.44
54022;BME280;39936;51.058;17.220;2023-05-09T19:34:25;101923.68;;;11.28;55.71
54022;BME280;39936;51.058;17.220;2023-05-09T19:41:59;101919.13;;;11.11;56.34
54022;BME280;39936;51.058;17.220;2023-05-09T19:45:15;101914.74;;;11.03;56.44
54022;BME280;39936;51.058;17.220;2023-05-09T19:49:19;101898.99;;;10.85;56.74
54022;BME280;39936;51.058;17.220;2023-05-09T19:52:57;101916.28;;;10.86;56.92
54022;BME280;39936;51.058;17.220;2023-05-09T19:56:39;101886.48;;;10.60;57.06
54022;BME280;39936;51.058;17.220;2023-05-09T20:00:16;101911.20;;;10.73;57.32
54022;BME280;39936;51.058;17.220;2023-05-09T20:04:05;101904.32;;;10.63;57.27
54022;BME280;39936;51.058;17.220;2023-05-09T20:07:40;101876.60;;;10.38;57.48
54022;BME280;39936;51.058;17.220;2023-05-09T20:15:35;101912.17;;;10.43;57.87
54022;BME280;39936;51.058;17.220;2023-05-09T20:19:16;101909.10;;;10.38;57.90
54022;BME280;39936;51.058;17.220;2023-05-09T20:22:55;101911.91;;;10.33;57.99
54022;BME280;39936;51.058;17.220;2023-05-09T20:26:37;101911.10;;;10.30;58.07
54022;BME280;39936;51.058;17.220;2023-05-09T20:30:38;101885.66;;;10.12;58.19
54022;BME280;39936;51.058;17.220;2023-05-09T20:34:09;101903.25;;;10.18;58.52
54022;BME280;39936;51.058;17.220;2023-05-09T20:37:32;101902.12;;;10.11;58.85
54022;BME280;39936;51.058;17.220;2023-05-09T20:41:24;101897.72;;;10.06;58.87
54022;BME280;39936;51.058;17.220;2023-05-09T20:45:13;101893.20;;;10.00;59.00
54022;BME280;39936;51.058;17.220;2023-05-09T20:49:03;101892.32;;;10.00;58.87
54022;BME280;39936;51.058;17.220;2023-05-09T20:52:37;101893.41;;;9.96;59.06
54022;BME280;39936;51.058;17.220;2023-05-09T20:55:53;101887.96;;;9.90;59.05
54022;BME280;39936;51.058;17.220;2023-05-09T20:59:11;101885.88;;;9.89;58.97
54022;BME280;39936;51.058;17.220;2023-05-09T21:02:47;101883.96;;;9.89;58.81
54022;BME280;39936;51.058;17.220;2023-05-09T21:06:38;101876.85;;;9.83;59.13
54022;BME280;39936;51.058;17.220;2023-05-09T21:10:09;101875.41;;;9.75;59.44
54022;BME280;39936;51.058;17.220;2023-05-09T21:13:47;101844.90;;;9.48;59.48
54022;BME280;39936;51.058;17.220;2023-05-09T21:17:08;101879.59;;;9.63;59.57